createdAt,value
2017-11-17T00:02:17.462Z,3.40
2017-11-17T00:04:45.624Z,3.50
2017-11-17T00:07:13.758Z,3.50
2017-11-17T00:09:41.946Z,3.50
2017-11-17T00:12:10.105Z,3.40
2017-11-17T00:14:38.238Z,3.40
2017-11-17T00:17:06.373Z,3.40
2017-11-17T00:19:34.652Z,3.40
2017-11-17T00:22:02.777Z,3.40
2017-11-17T00:24:30.950Z,3.40
2017-11-17T00:26:59.090Z,3.40
2017-11-17T00:29:27.258Z,3.50
2017-11-17T00:31:55.403Z,3.50
2017-11-17T00:34:23.541Z,3.40
2017-11-17T00:36:51.841Z,3.50
2017-11-17T00:39:19.986Z,3.60
2017-11-17T00:41:48.116Z,3.60
2017-11-17T00:44:17.044Z,3.60
2017-11-17T00:46:45.218Z,3.60
2017-11-17T00:49:13.345Z,3.60
2017-11-17T00:51:42.294Z,3.60
2017-11-17T00:54:10.433Z,3.60
2017-11-17T00:56:38.560Z,3.70
2017-11-17T00:59:06.849Z,3.70
2017-11-17T01:01:34.984Z,3.70
2017-11-17T01:04:03.292Z,3.70
2017-11-17T01:06:31.425Z,3.80
2017-11-17T01:08:59.557Z,3.80
2017-11-17T01:11:28.514Z,3.80
2017-11-17T01:13:56.656Z,3.70
2017-11-17T01:16:24.776Z,3.80
2017-11-17T01:18:52.942Z,3.70
2017-11-17T01:21:21.086Z,3.70
2017-11-17T01:23:49.358Z,3.70
2017-11-17T01:26:17.493Z,3.70
2017-11-17T01:28:46.425Z,3.70
2017-11-17T01:31:14.565Z,3.70
2017-11-17T01:33:43.486Z,3.70
2017-11-17T01:36:11.643Z,3.70
2017-11-17T01:38:39.785Z,3.70
2017-11-17T01:41:08.056Z,3.80
2017-11-17T01:43:36.204Z,3.80
2017-11-17T01:46:04.398Z,3.80
2017-11-17T01:48:32.529Z,3.80
2017-11-17T01:51:00.701Z,3.90
2017-11-17T01:53:28.833Z,3.90
2017-11-17T01:55:57.122Z,3.90
2017-11-17T01:58:26.055Z,3.90
2017-11-17T02:00:54.201Z,3.90
2017-11-17T02:03:22.490Z,3.80
2017-11-17T02:05:50.637Z,3.80
2017-11-17T02:08:19.570Z,3.90
2017-11-17T02:10:47.774Z,3.90
2017-11-17T02:13:15.913Z,3.90
2017-11-17T02:15:44.106Z,3.90
2017-11-17T02:18:12.249Z,3.80
2017-11-17T02:20:40.533Z,3.90
2017-11-17T02:23:08.666Z,3.90
2017-11-17T02:25:37.562Z,3.90
2017-11-17T02:28:06.497Z,3.90
2017-11-17T02:30:34.636Z,3.90
2017-11-17T02:33:02.909Z,3.90
2017-11-17T02:35:31.046Z,3.80
2017-11-17T02:37:59.315Z,3.80
2017-11-17T02:40:27.450Z,3.80
2017-11-17T02:42:55.573Z,3.80
2017-11-17T02:45:23.759Z,3.90
2017-11-17T02:47:52.665Z,3.90
2017-11-17T02:50:20.858Z,3.90
2017-11-17T02:52:48.986Z,3.90
2017-11-17T02:55:17.132Z,3.80
2017-11-17T02:57:45.317Z,3.80
2017-11-17T03:00:13.455Z,3.90
2017-11-17T03:02:41.630Z,3.90
2017-11-17T03:05:09.773Z,3.90
2017-11-17T03:07:38.671Z,3.80
2017-11-17T03:10:06.959Z,3.80
2017-11-17T03:12:35.096Z,3.90
2017-11-17T03:15:03.254Z,3.90
2017-11-17T03:17:31.393Z,3.90
2017-11-17T03:19:59.565Z,3.90
2017-11-17T03:22:27.701Z,4.00
2017-11-17T03:24:56.608Z,4.10
2017-11-17T03:27:24.871Z,4.10
2017-11-17T03:29:53.011Z,4.10
2017-11-17T03:32:21.166Z,4.10
2017-11-17T03:34:49.298Z,4.20
2017-11-17T03:37:17.471Z,4.20
2017-11-17T03:39:46.352Z,4.30
2017-11-17T03:42:15.395Z,4.30
2017-11-17T03:44:43.540Z,4.30
2017-11-17T03:47:11.681Z,4.30
2017-11-17T03:49:40.722Z,4.30
2017-11-17T03:52:08.873Z,4.30
2017-11-17T03:54:37.041Z,4.40
2017-11-17T03:57:05.183Z,4.40
2017-11-17T03:59:33.377Z,4.40
2017-11-17T04:02:02.301Z,4.40
2017-11-17T04:04:30.475Z,4.40
2017-11-17T04:06:58.610Z,4.40
2017-11-17T04:09:27.518Z,4.30
2017-11-17T04:11:55.686Z,4.20
2017-11-17T04:14:23.823Z,4.30
2017-11-17T04:16:52.100Z,4.20
2017-11-17T04:19:20.281Z,4.30
2017-11-17T04:21:48.414Z,4.20
2017-11-17T04:24:16.553Z,4.20
2017-11-17T04:26:45.479Z,4.20
2017-11-17T04:29:13.615Z,4.20
2017-11-17T04:31:42.562Z,4.20
2017-11-17T04:34:10.693Z,4.20
2017-11-17T04:36:38.950Z,4.20
2017-11-17T04:39:07.842Z,4.10
2017-11-17T04:41:36.800Z,4.10
2017-11-17T04:44:04.922Z,4.10
2017-11-17T04:46:33.085Z,4.10
2017-11-17T04:49:01.989Z,4.10
2017-11-17T04:51:30.125Z,4.10
2017-11-17T04:53:58.286Z,4.20
2017-11-17T04:56:26.425Z,4.20
2017-11-17T04:58:54.705Z,4.20
2017-11-17T05:01:22.838Z,4.20
2017-11-17T05:03:51.003Z,4.20
2017-11-17T05:06:19.169Z,4.20
2017-11-17T05:08:47.298Z,4.10
2017-11-17T05:11:15.465Z,4.10
2017-11-17T05:13:43.609Z,4.10
2017-11-17T05:16:12.662Z,4.00
2017-11-17T05:18:40.793Z,4.00
2017-11-17T05:21:08.946Z,4.10
2017-11-17T05:23:37.882Z,4.10
2017-11-17T05:26:06.786Z,4.10
2017-11-17T05:28:34.954Z,4.10
2017-11-17T05:31:03.095Z,4.20
2017-11-17T05:33:31.225Z,4.20
2017-11-17T05:35:59.429Z,4.20
2017-11-17T05:38:28.345Z,4.20
2017-11-17T05:40:56.478Z,4.20
2017-11-17T05:43:25.451Z,4.20
2017-11-17T05:45:53.575Z,4.20
2017-11-17T05:48:21.709Z,4.20
2017-11-17T05:50:49.906Z,4.20
2017-11-17T05:53:18.821Z,4.20
2017-11-17T05:55:47.018Z,4.20
2017-11-17T05:58:15.908Z,4.20
2017-11-17T06:00:47.006Z,4.20
2017-11-17T06:03:16.025Z,4.30
2017-11-17T06:05:44.162Z,4.30
2017-11-17T06:08:13.084Z,4.30
2017-11-17T06:10:41.278Z,4.30
2017-11-17T06:13:09.413Z,4.40
2017-11-17T06:15:37.546Z,4.40
2017-11-17T06:18:05.843Z,4.40
2017-11-17T06:20:34.004Z,4.40
2017-11-17T06:23:02.152Z,4.40
2017-11-17T06:25:30.286Z,4.30
2017-11-17T06:27:58.463Z,4.30
2017-11-17T06:30:26.643Z,4.30
2017-11-17T06:32:54.770Z,4.30
2017-11-17T06:35:22.918Z,4.20
2017-11-17T06:37:51.202Z,4.30
2017-11-17T06:40:19.342Z,4.30
2017-11-17T06:42:47.474Z,4.30
2017-11-17T06:45:15.637Z,4.30
2017-11-17T06:47:43.767Z,4.30
2017-11-17T06:50:11.948Z,4.30
2017-11-17T06:52:40.074Z,4.40
2017-11-17T06:55:09.042Z,4.40
2017-11-17T06:57:37.194Z,4.40
2017-11-17T07:00:05.316Z,4.40
2017-11-17T07:02:34.247Z,4.40
2017-11-17T07:05:02.386Z,4.40
2017-11-17T07:07:31.325Z,4.30
2017-11-17T07:09:59.479Z,4.30
2017-11-17T07:12:27.610Z,4.30
2017-11-17T07:14:56.650Z,4.30
2017-11-17T07:17:24.786Z,4.30
2017-11-17T07:19:53.738Z,4.20
2017-11-17T07:22:21.862Z,4.20
2017-11-17T07:24:50.157Z,4.20
2017-11-17T07:27:18.293Z,4.20
2017-11-17T07:29:47.197Z,4.30
2017-11-17T07:32:16.125Z,4.40
2017-11-17T07:34:44.261Z,4.40
2017-11-17T07:37:13.202Z,4.40
2017-11-17T07:39:41.335Z,4.50
2017-11-17T07:42:09.474Z,4.50
2017-11-17T07:44:37.768Z,4.50
2017-11-17T07:47:06.667Z,4.60
2017-11-17T07:49:34.946Z,4.50
2017-11-17T07:52:03.087Z,4.50
2017-11-17T07:54:31.218Z,4.60
2017-11-17T07:56:59.387Z,4.60
2017-11-17T07:59:27.522Z,4.60
2017-11-17T08:01:56.583Z,4.80
2017-11-17T08:04:24.707Z,4.70
2017-11-17T08:06:53.632Z,4.70
2017-11-17T08:09:21.784Z,4.70
2017-11-17T08:11:49.921Z,4.70
2017-11-17T08:14:18.086Z,4.70
2017-11-17T08:16:46.230Z,4.60
2017-11-17T08:19:14.366Z,4.50
2017-11-17T08:21:42.662Z,4.50
2017-11-17T08:24:10.847Z,4.50
2017-11-17T08:26:39.000Z,4.50
2017-11-17T08:29:07.145Z,4.50
2017-11-17T08:31:36.093Z,4.50
2017-11-17T08:34:04.233Z,4.50
2017-11-17T08:36:32.373Z,4.50
2017-11-17T08:39:00.638Z,4.50
2017-11-17T08:41:28.781Z,4.50
2017-11-17T08:43:56.938Z,4.50
2017-11-17T08:46:25.073Z,4.60
2017-11-17T08:48:53.975Z,4.70
2017-11-17T08:51:22.129Z,4.70
2017-11-17T08:53:50.271Z,4.80
2017-11-17T08:56:18.545Z,4.90
2017-11-17T08:58:46.677Z,5.00
2017-11-17T09:01:14.881Z,5.00
2017-11-17T09:03:43.014Z,5.00
2017-11-17T09:06:11.976Z,5.10
2017-11-17T09:08:40.130Z,5.10
2017-11-17T09:11:08.285Z,5.10
2017-11-17T09:13:36.556Z,5.10
2017-11-17T09:16:04.692Z,5.20
2017-11-17T09:18:32.962Z,5.20
2017-11-17T09:21:01.134Z,5.30
2017-11-17T09:23:29.273Z,5.30
2017-11-17T09:25:57.413Z,5.40
2017-11-17T09:28:25.592Z,5.40
2017-11-17T09:30:54.532Z,5.50
2017-11-17T09:33:22.686Z,5.50
2017-11-17T09:35:50.996Z,5.50
2017-11-17T09:38:19.155Z,5.50
2017-11-17T09:40:47.290Z,5.50
2017-11-17T09:43:15.453Z,5.60
2017-11-17T09:45:43.590Z,5.60
2017-11-17T09:48:11.879Z,5.60
2017-11-17T09:50:40.006Z,5.70
2017-11-17T09:53:08.235Z,5.70
2017-11-17T09:55:37.137Z,5.60
2017-11-17T09:58:05.306Z,5.60
2017-11-17T10:00:34.200Z,5.70
2017-11-17T10:03:02.337Z,5.70
2017-11-17T10:05:30.635Z,5.60
2017-11-17T10:07:59.544Z,5.70
2017-11-17T10:10:27.725Z,5.70
2017-11-17T10:12:55.869Z,5.70
2017-11-17T10:15:23.997Z,5.80
2017-11-17T10:17:52.178Z,5.80
2017-11-17T10:20:20.318Z,5.80
2017-11-17T10:22:48.599Z,5.80
2017-11-17T10:25:16.753Z,5.80
2017-11-17T10:27:44.926Z,5.60
2017-11-17T10:30:13.071Z,5.60
2017-11-17T10:32:41.209Z,5.50
2017-11-17T10:35:09.373Z,5.60
2017-11-17T10:37:37.502Z,5.50
2017-11-17T10:40:06.563Z,5.60
2017-11-17T10:42:34.703Z,5.60
2017-11-17T10:45:02.829Z,5.60
2017-11-17T10:47:31.134Z,5.60
2017-11-17T10:49:59.290Z,5.60
2017-11-17T10:52:27.458Z,5.60
2017-11-17T10:54:55.591Z,5.50
2017-11-17T10:57:23.735Z,5.60
2017-11-17T10:59:51.912Z,5.60
2017-11-17T11:02:20.037Z,5.70
2017-11-17T11:04:48.330Z,5.70
2017-11-17T11:07:16.450Z,5.80
2017-11-17T11:09:44.624Z,5.80
2017-11-17T11:12:12.817Z,5.70
2017-11-17T11:14:40.973Z,5.70
2017-11-17T11:17:09.243Z,5.70
2017-11-17T11:19:37.386Z,5.70
2017-11-17T11:22:06.338Z,5.60
2017-11-17T11:24:34.476Z,5.60
2017-11-17T11:27:02.649Z,5.70
2017-11-17T11:29:30.778Z,5.80
2017-11-17T11:31:58.925Z,5.80
2017-11-17T11:34:27.090Z,5.80
2017-11-17T11:36:55.231Z,5.80
2017-11-17T11:39:23.375Z,5.90
2017-11-17T11:41:51.646Z,5.80
2017-11-17T11:44:19.796Z,5.90
2017-11-17T11:46:47.961Z,5.90
2017-11-17T11:49:16.128Z,6.00
2017-11-17T11:51:44.259Z,6.10
2017-11-17T11:54:13.194Z,6.10
2017-11-17T11:56:41.337Z,6.20
2017-11-17T11:59:09.479Z,6.20
2017-11-17T12:01:37.648Z,6.30
2017-11-17T12:04:05.799Z,6.30
2017-11-17T12:06:33.970Z,6.30
2017-11-17T12:09:02.114Z,6.40
2017-11-17T12:11:30.434Z,6.40
2017-11-17T12:13:58.552Z,6.40
2017-11-17T12:16:26.685Z,6.50
2017-11-17T12:18:54.974Z,6.60
2017-11-17T12:21:23.902Z,6.50
2017-11-17T12:23:52.058Z,6.50
2017-11-17T12:26:20.950Z,6.50
2017-11-17T12:28:49.086Z,6.40
2017-11-17T12:31:17.266Z,6.40
2017-11-17T12:33:45.394Z,6.40
2017-11-17T12:36:13.683Z,6.40
2017-11-17T12:38:41.842Z,6.40
2017-11-17T12:41:10.015Z,6.40
2017-11-17T12:43:38.155Z,6.30
2017-11-17T12:46:07.118Z,6.40
2017-11-17T12:48:35.257Z,6.40
2017-11-17T12:51:03.405Z,6.40
2017-11-17T12:53:32.479Z,6.30
2017-11-17T12:56:00.594Z,6.30
2017-11-17T12:58:28.768Z,6.30
2017-11-17T13:00:56.911Z,6.40
2017-11-17T13:03:25.965Z,6.50
2017-11-17T13:05:54.801Z,6.50
2017-11-17T13:08:22.946Z,6.40
2017-11-17T13:10:51.122Z,6.50
2017-11-17T13:13:20.030Z,6.60
2017-11-17T13:15:48.945Z,6.70
2017-11-17T13:18:17.110Z,6.70
2017-11-17T13:20:45.251Z,6.60
2017-11-17T13:23:13.398Z,6.60
2017-11-17T13:25:42.348Z,6.70
2017-11-17T13:28:10.512Z,6.60
2017-11-17T13:30:38.649Z,6.70
2017-11-17T13:33:06.830Z,6.70
2017-11-17T13:35:34.971Z,6.80
2017-11-17T13:38:03.132Z,6.90
2017-11-17T13:40:31.329Z,6.80
2017-11-17T13:42:59.467Z,6.70
2017-11-17T13:45:27.693Z,6.70
2017-11-17T13:47:55.845Z,6.70
2017-11-17T13:50:23.985Z,6.60
2017-11-17T13:52:52.183Z,6.60
2017-11-17T13:55:20.328Z,6.70
2017-11-17T13:57:48.468Z,6.60
2017-11-17T14:00:16.658Z,6.60
2017-11-17T14:02:45.574Z,6.60
2017-11-17T14:05:13.725Z,6.60
2017-11-17T14:07:42.679Z,6.70
2017-11-17T14:10:10.869Z,6.70
2017-11-17T14:12:39.068Z,6.70
2017-11-17T14:15:07.966Z,6.80
2017-11-17T14:17:36.115Z,6.80
2017-11-17T14:20:04.278Z,6.80
2017-11-17T14:22:32.420Z,6.90
2017-11-17T14:25:00.720Z,6.90
2017-11-17T14:27:28.852Z,6.90
2017-11-17T14:29:56.995Z,7.00
2017-11-17T14:32:25.959Z,7.10
2017-11-17T14:34:54.111Z,7.10
2017-11-17T14:37:22.259Z,7.10
2017-11-17T14:39:50.442Z,7.00
2017-11-17T14:42:18.591Z,7.10
2017-11-17T14:44:47.493Z,7.10
2017-11-17T14:47:15.763Z,7.10
2017-11-17T14:49:43.903Z,7.10
2017-11-17T14:52:12.075Z,7.10
2017-11-17T14:54:40.230Z,7.20
2017-11-17T14:57:08.431Z,7.20
2017-11-17T14:59:36.569Z,7.20
2017-11-17T15:02:04.746Z,7.20
2017-11-17T15:04:33.220Z,7.20
2017-11-17T15:07:01.350Z,7.20
2017-11-17T15:09:29.639Z,7.20
2017-11-17T15:11:57.822Z,7.30
2017-11-17T15:14:25.978Z,7.30
2017-11-17T15:16:55.027Z,7.30
2017-11-17T15:19:23.170Z,7.30
2017-11-17T15:21:51.343Z,7.30
2017-11-17T15:24:19.494Z,7.40
2017-11-17T15:30:38.713Z,7.30
2017-11-17T15:33:11.050Z,7.30
2017-11-17T15:35:39.188Z,7.20
2017-11-17T15:38:07.370Z,7.20
2017-11-17T15:40:35.517Z,7.20
2017-11-17T15:43:03.672Z,7.20
2017-11-17T15:58:37.581Z,7.40
2017-11-17T16:01:05.745Z,7.30
2017-11-17T16:03:33.900Z,7.20
2017-11-17T16:06:02.104Z,7.00
2017-11-17T16:08:30.226Z,6.90
2017-11-17T16:10:59.211Z,6.60
2017-11-17T16:13:27.355Z,6.60
2017-11-17T16:15:55.509Z,6.70
2017-11-17T16:18:23.826Z,6.60
2017-11-17T16:20:51.961Z,6.60
2017-11-17T16:23:20.128Z,6.70
2017-11-17T16:25:48.306Z,6.70
2017-11-17T16:28:16.461Z,6.60
2017-11-17T16:30:44.618Z,6.60
2017-11-17T16:33:12.758Z,6.50
2017-11-17T16:35:48.727Z,6.60
2017-11-17T16:38:16.859Z,6.70
2017-11-17T16:40:44.995Z,6.60
2017-11-17T16:43:13.207Z,6.60
2017-11-17T16:45:41.357Z,6.60
2017-11-17T16:48:09.513Z,6.50
2017-11-17T16:50:37.649Z,6.50
2017-11-17T16:53:05.846Z,6.50
2017-11-17T16:55:34.752Z,6.40
2017-11-17T16:58:02.936Z,6.40
2017-11-17T17:00:31.080Z,6.40
2017-11-17T17:02:59.248Z,6.40
2017-11-17T17:05:27.399Z,6.40
2017-11-17T17:07:55.542Z,6.40
2017-11-17T17:10:23.873Z,6.40
2017-11-17T17:12:52.812Z,6.40
2017-11-17T17:15:20.977Z,6.40
2017-11-17T17:17:49.138Z,6.40
2017-11-17T17:20:17.318Z,6.40
2017-11-17T17:22:45.457Z,6.50
2017-11-17T17:25:13.604Z,6.30
2017-11-17T17:27:41.897Z,6.30
2017-11-17T17:30:10.026Z,6.30
2017-11-17T17:32:38.222Z,6.20
2017-11-17T17:35:06.379Z,6.20
2017-11-17T17:37:34.506Z,6.20
2017-11-17T17:40:03.458Z,6.30
2017-11-17T17:42:31.605Z,6.30
2017-11-17T17:44:59.807Z,6.30
2017-11-17T17:47:27.944Z,6.30
2017-11-17T17:49:56.264Z,6.40
2017-11-17T17:52:24.438Z,6.40
2017-11-17T17:54:52.570Z,6.50
2017-11-17T17:57:20.865Z,6.50
2017-11-17T17:59:49.003Z,6.50
2017-11-17T18:02:17.145Z,6.60
2017-11-17T18:04:45.430Z,6.60
2017-11-17T18:07:13.603Z,6.60
2017-11-17T18:09:41.768Z,6.60
2017-11-17T18:12:10.000Z,6.60
2017-11-17T18:14:40.046Z,6.60
2017-11-17T18:17:08.231Z,6.60
2017-11-17T18:19:36.415Z,6.60
2017-11-17T18:22:04.784Z,6.60
2017-11-17T18:24:35.824Z,6.60
2017-11-17T18:27:03.966Z,6.60
2017-11-17T18:29:35.326Z,6.70
2017-11-17T18:32:03.571Z,6.70
2017-11-17T18:34:31.738Z,6.70
2017-11-17T18:37:00.699Z,6.70
2017-11-17T18:39:28.915Z,6.70
2017-11-17T18:41:57.110Z,6.70
2017-11-17T18:44:26.028Z,6.80
2017-11-17T18:46:54.922Z,6.70
2017-11-17T18:49:23.116Z,6.70
2017-11-17T18:51:52.053Z,6.80
2017-11-17T18:54:20.175Z,6.80
2017-11-17T18:56:48.522Z,6.80
2017-11-17T18:59:16.665Z,6.80
2017-11-17T19:01:44.883Z,6.80
2017-11-17T19:04:13.014Z,6.80
2017-11-17T19:06:41.204Z,6.80
2017-11-17T19:09:09.338Z,6.70
2017-11-17T19:11:40.203Z,6.70
2017-11-17T19:14:08.368Z,6.80
2017-11-17T19:16:37.281Z,6.70
2017-11-17T19:19:05.427Z,6.60
2017-11-17T19:21:33.582Z,6.70
2017-11-17T19:24:06.362Z,6.70
2017-11-17T19:26:35.278Z,6.80
2017-11-17T19:29:03.523Z,6.80
2017-11-17T19:31:31.673Z,6.80
2017-11-17T19:33:59.872Z,6.80
2017-11-17T19:36:28.817Z,6.80
2017-11-17T19:38:57.211Z,6.80
2017-11-17T19:41:25.396Z,6.90
2017-11-17T19:43:53.553Z,6.90
2017-11-17T19:46:21.787Z,6.90
2017-11-17T19:48:49.919Z,6.90
2017-11-17T19:51:18.104Z,6.80
2017-11-17T19:53:46.246Z,6.80
2017-11-17T19:56:14.442Z,6.70
2017-11-17T19:58:42.601Z,6.70
2017-11-17T20:01:10.750Z,6.80
2017-11-17T20:03:38.987Z,6.80
2017-11-17T20:06:07.141Z,6.80
2017-11-17T20:08:35.358Z,6.80
2017-11-17T20:11:03.518Z,6.80
2017-11-17T20:13:32.419Z,6.80
2017-11-17T20:16:00.637Z,6.80
2017-11-17T20:18:28.820Z,6.80
2017-11-17T20:20:57.040Z,6.80
2017-11-17T20:23:27.706Z,6.80
2017-11-17T20:25:55.900Z,6.70
2017-11-17T20:28:24.072Z,6.70
2017-11-17T20:30:52.208Z,6.70
2017-11-17T20:33:20.517Z,6.70
2017-11-17T20:35:48.667Z,6.70
2017-11-17T20:38:16.959Z,6.70
2017-11-17T20:40:45.115Z,6.70
2017-11-17T20:43:13.282Z,6.70
2017-11-17T20:45:41.512Z,6.70
2017-11-17T20:48:09.667Z,6.80
2017-11-17T20:50:37.840Z,6.80
2017-11-17T20:53:06.082Z,6.80
2017-11-17T20:55:34.340Z,6.80
2017-11-17T20:58:02.495Z,6.90
2017-11-17T21:00:31.479Z,6.90
2017-11-17T21:02:59.612Z,6.90
2017-11-17T21:05:27.764Z,6.90
2017-11-17T21:07:56.084Z,6.80
2017-11-17T21:10:24.273Z,6.80
2017-11-17T21:12:53.207Z,6.70
2017-11-17T21:15:21.352Z,6.70
2017-11-17T21:17:50.297Z,6.70
2017-11-17T21:20:18.440Z,6.70
2017-11-17T21:22:46.750Z,6.70
2017-11-17T21:25:14.892Z,6.80
2017-11-17T21:27:43.063Z,6.80
2017-11-17T21:30:11.238Z,6.80
2017-11-17T21:32:39.387Z,6.70
2017-11-17T21:35:08.351Z,6.70
2017-11-17T21:37:36.507Z,6.70
2017-11-17T21:40:04.652Z,6.70
2017-11-17T21:42:32.956Z,6.80
2017-11-17T21:45:01.125Z,6.80
2017-11-17T21:47:29.276Z,6.70
2017-11-17T21:49:57.427Z,6.70
2017-11-17T21:52:26.366Z,6.70
2017-11-17T21:54:54.525Z,6.70
2017-11-17T21:57:22.659Z,6.70
2017-11-17T21:59:51.735Z,6.60
2017-11-17T22:02:19.864Z,6.60
2017-11-17T22:04:48.153Z,6.60
2017-11-17T22:07:16.306Z,6.60
2017-11-17T22:09:44.487Z,6.60
2017-11-17T22:12:12.651Z,6.50
2017-11-17T22:14:40.803Z,6.50
2017-11-17T22:17:09.088Z,6.60
2017-11-17T22:19:37.238Z,6.60
2017-11-17T22:22:06.136Z,6.70
2017-11-17T22:24:35.106Z,6.70
2017-11-17T22:27:03.258Z,6.70
2017-11-17T22:29:31.448Z,6.70
2017-11-17T22:31:59.609Z,6.70
2017-11-17T22:34:27.760Z,6.70
2017-11-17T22:36:56.694Z,6.60
2017-11-17T22:39:24.998Z,6.60
2017-11-17T22:41:53.915Z,6.50
2017-11-17T22:44:22.057Z,6.60
2017-11-17T22:46:50.225Z,6.50
2017-11-17T22:49:19.130Z,6.40
2017-11-17T22:51:47.298Z,6.40
2017-11-17T22:54:15.440Z,6.50
2017-11-17T22:56:43.576Z,6.50
2017-11-17T22:59:11.865Z,6.50
2017-11-17T23:01:40.021Z,6.50
2017-11-17T23:04:08.203Z,6.50
2017-11-17T23:06:36.351Z,6.60
2017-11-17T23:09:04.647Z,6.60
2017-11-17T23:11:32.803Z,6.60
2017-11-17T23:14:00.923Z,6.70
2017-11-17T23:16:29.113Z,6.70
2017-11-17T23:18:57.250Z,6.80
2017-11-17T23:21:25.432Z,6.80
2017-11-17T23:23:53.558Z,6.80
2017-11-17T23:26:21.726Z,6.70
2017-11-17T23:28:49.873Z,6.80
2017-11-17T23:31:18.189Z,6.80
2017-11-17T23:33:46.322Z,6.80
2017-11-17T23:36:14.473Z,6.80
2017-11-17T23:38:42.627Z,6.80
2017-11-17T23:41:10.774Z,6.70
2017-11-17T23:43:38.939Z,6.70
2017-11-17T23:46:07.835Z,6.70
2017-11-17T23:48:35.967Z,6.70
2017-11-17T23:51:04.254Z,6.70
2017-11-17T23:53:32.385Z,6.80
2017-11-17T23:56:00.555Z,6.80
2017-11-17T23:58:28.703Z,6.80
